createdAt,value
2019-01-15T00:01:41.552Z,5.60
2019-01-15T00:06:43.344Z,5.47
2019-01-15T00:11:53.118Z,3.90
2019-01-15T00:16:55.278Z,3.63
2019-01-15T00:21:57.055Z,3.90
2019-01-15T00:26:58.830Z,4.70
2019-01-15T00:32:00.538Z,2.33
2019-01-15T00:37:02.383Z,3.37
2019-01-15T00:42:04.159Z,3.67
2019-01-15T00:47:05.934Z,3.97
2019-01-15T00:52:07.711Z,3.87
2019-01-15T00:57:09.487Z,4.13
2019-01-15T01:02:11.192Z,2.87
2019-01-15T01:07:13.039Z,4.50
2019-01-15T01:12:14.814Z,3.53
2019-01-15T01:17:16.598Z,4.57
2019-01-15T01:22:18.375Z,4.40
2019-01-15T01:27:20.354Z,4.60
2019-01-15T01:32:22.129Z,3.80
2019-01-15T01:37:24.212Z,3.77
2019-01-15T01:42:29.598Z,4.47
2019-01-15T01:47:29.602Z,4.47
2019-01-15T01:52:31.377Z,5.37
2019-01-15T01:57:33.163Z,2.83
2019-01-15T02:02:34.937Z,7.83
2019-01-15T02:07:36.724Z,4.67
2019-01-15T02:12:38.594Z,5.07
2019-01-15T02:17:40.474Z,6.30
2019-01-15T02:22:42.244Z,5.07
2019-01-15T02:27:45.863Z,5.33
2019-01-15T02:32:47.639Z,3.97
2019-01-15T02:37:50.030Z,6.57
2019-01-15T02:42:51.808Z,6.70
2019-01-15T02:47:53.586Z,5.87
2019-01-15T02:52:55.358Z,7.53
2019-01-15T02:57:57.237Z,4.30
2019-01-15T03:02:59.015Z,6.10
2019-01-15T03:08:01.000Z,5.77
2019-01-15T03:13:02.873Z,4.70
2019-01-15T03:18:04.753Z,4.63
2019-01-15T03:23:06.936Z,7.23
2019-01-15T03:28:09.113Z,6.57
2019-01-15T03:33:11.444Z,7.20
2019-01-15T03:38:13.293Z,6.30
2019-01-15T03:43:15.479Z,5.60
2019-01-15T03:48:18.101Z,6.37
2019-01-15T03:53:20.056Z,5.80
2019-01-15T03:58:21.932Z,7.37
2019-01-15T04:03:23.702Z,6.33
2019-01-15T04:08:25.582Z,7.70
2019-01-15T04:13:27.358Z,5.50
2019-01-15T04:18:29.133Z,4.23
2019-01-15T04:23:30.909Z,3.17
2019-01-15T04:28:32.686Z,3.00
2019-01-15T04:33:34.481Z,3.77
2019-01-15T04:38:36.248Z,4.43
2019-01-15T04:43:38.019Z,5.83
2019-01-15T04:48:39.905Z,5.40
2019-01-15T04:53:41.672Z,4.20
2019-01-15T04:58:43.450Z,5.33
2019-01-15T05:03:45.224Z,6.10
2019-01-15T05:08:47.016Z,5.97
2019-01-15T05:13:48.779Z,4.63
2019-01-15T05:18:50.553Z,4.70
2019-01-15T05:23:52.224Z,6.30
2019-01-15T05:28:54.004Z,5.57
2019-01-15T05:33:55.778Z,6.27
2019-01-15T05:38:57.562Z,7.03
2019-01-15T05:43:59.333Z,6.63
2019-01-15T05:49:08.149Z,5.57
2019-01-15T05:54:09.936Z,6.13
2019-01-15T05:59:11.725Z,5.13
2019-01-15T06:04:13.499Z,7.50
2019-01-15T06:09:15.277Z,5.93
2019-01-15T06:14:16.970Z,7.60
2019-01-15T06:19:18.728Z,7.60
2019-01-15T06:24:20.501Z,6.00
2019-01-15T06:29:22.278Z,7.00
2019-01-15T06:34:30.708Z,8.10
2019-01-15T06:39:32.795Z,7.80
2019-01-15T06:44:34.571Z,8.80
2019-01-15T06:49:36.346Z,8.40
2019-01-15T06:54:38.040Z,6.83
2019-01-15T06:59:39.814Z,6.43
2019-01-15T07:04:44.023Z,6.60
2019-01-15T07:09:45.192Z,8.03
2019-01-15T07:14:46.971Z,5.90
2019-01-15T07:19:48.801Z,8.63
2019-01-15T07:24:50.569Z,8.13
2019-01-15T07:29:52.401Z,10.40
2019-01-15T07:34:54.185Z,8.73
2019-01-15T07:39:56.062Z,8.80
2019-01-15T07:44:57.811Z,7.90
2019-01-15T07:49:59.488Z,8.57
2019-01-15T07:55:01.287Z,6.27
2019-01-15T08:00:09.616Z,9.00
2019-01-15T08:05:13.956Z,8.00
2019-01-15T08:10:16.646Z,11.87
2019-01-15T08:15:21.625Z,10.23
2019-01-15T08:20:23.576Z,13.07
2019-01-15T08:25:26.579Z,7.50
2019-01-15T08:30:34.129Z,10.40
2019-01-15T08:35:39.693Z,8.63
2019-01-15T08:40:41.541Z,7.00
2019-01-15T08:45:43.414Z,8.80
2019-01-15T08:50:49.395Z,6.10
2019-01-15T08:55:53.013Z,6.97
2019-01-15T09:00:54.889Z,9.07
2019-01-15T09:05:56.665Z,9.07
2019-01-15T09:10:58.439Z,7.80
2019-01-15T09:16:00.317Z,11.43
2019-01-15T09:21:02.161Z,10.20
2019-01-15T09:26:03.979Z,6.80
2019-01-15T09:31:05.906Z,7.60
2019-01-15T09:36:07.629Z,7.70
2019-01-15T09:41:09.629Z,7.30
2019-01-15T09:46:11.490Z,8.10
2019-01-15T09:51:14.185Z,9.07
2019-01-15T09:56:16.005Z,9.37
2019-01-15T10:01:17.735Z,10.57
2019-01-15T10:06:19.513Z,12.20
2019-01-15T10:11:21.292Z,10.70
2019-01-15T10:16:23.173Z,10.80
2019-01-15T10:21:24.919Z,13.23
2019-01-15T10:26:26.619Z,8.97
2019-01-15T10:31:49.195Z,13.70
2019-01-15T10:36:50.548Z,14.20
2019-01-15T10:41:52.389Z,14.67
2019-01-15T10:46:54.100Z,13.10
2019-01-15T10:51:55.827Z,12.97
2019-01-15T10:56:57.551Z,13.57
2019-01-15T11:01:59.296Z,11.80
2019-01-15T11:07:01.003Z,11.90
2019-01-15T11:12:02.983Z,8.77
2019-01-15T11:17:05.167Z,10.60
2019-01-15T11:22:06.943Z,11.30
2019-01-15T11:27:08.720Z,11.30
2019-01-15T11:32:10.816Z,7.53
2019-01-15T11:37:12.684Z,8.23
2019-01-15T11:42:14.459Z,9.07
2019-01-15T11:47:16.234Z,9.17
2019-01-15T11:52:18.007Z,7.73
2019-01-15T11:57:19.759Z,12.17
2019-01-15T12:02:22.585Z,9.03
2019-01-15T12:07:26.613Z,11.40
2019-01-15T12:12:39.711Z,11.70
2019-01-15T12:17:52.297Z,11.80
2019-01-15T12:22:55.910Z,14.47
2019-01-15T12:27:59.717Z,16.60
2019-01-15T12:33:03.476Z,12.00
2019-01-15T12:38:10.251Z,11.73
2019-01-15T12:43:16.796Z,10.47
2019-01-15T12:48:39.001Z,11.23
2019-01-15T12:54:01.044Z,13.77
2019-01-15T12:59:13.725Z,13.80
2019-01-15T13:04:17.701Z,11.43
2019-01-15T13:09:38.218Z,13.63
2019-01-15T13:14:59.957Z,11.30
2019-01-15T13:20:03.579Z,9.67
2019-01-15T13:25:19.691Z,8.43
2019-01-15T13:30:25.782Z,6.83
2019-01-15T13:35:29.299Z,7.40
2019-01-15T13:40:32.919Z,8.80
2019-01-15T13:45:53.197Z,8.47
2019-01-15T13:51:02.482Z,9.30
2019-01-15T13:56:12.061Z,9.70
2019-01-15T14:01:27.936Z,10.00
2019-01-15T14:06:34.229Z,8.73
2019-01-15T14:11:37.795Z,9.43
2019-01-15T14:16:41.383Z,9.77
2019-01-15T14:22:01.994Z,13.17
2019-01-15T14:27:14.486Z,15.17
2019-01-15T14:32:18.009Z,18.87
2019-01-15T14:37:24.302Z,21.80
2019-01-15T14:42:33.955Z,14.47
2019-01-15T14:47:40.584Z,15.90
2019-01-15T14:52:50.350Z,13.37
2019-01-15T14:58:03.184Z,11.07
2019-01-15T15:03:09.468Z,15.20
2019-01-15T15:08:15.956Z,13.90
2019-01-15T15:13:22.728Z,13.90
2019-01-15T15:18:26.279Z,16.30
2019-01-15T15:23:29.752Z,14.27
2019-01-15T15:28:35.885Z,15.13
2019-01-15T15:33:54.766Z,12.93
2019-01-15T15:39:16.118Z,15.40
2019-01-15T15:44:20.075Z,13.97
2019-01-15T15:49:30.725Z,18.07
2019-01-15T15:54:49.961Z,12.77
2019-01-15T15:59:56.883Z,13.93
2019-01-15T16:05:09.837Z,14.43
2019-01-15T16:10:22.849Z,17.47
2019-01-15T16:15:41.426Z,12.67
2019-01-15T16:21:00.064Z,16.17
2019-01-15T16:26:06.402Z,17.10
2019-01-15T16:31:28.267Z,15.00
2019-01-15T16:36:44.360Z,12.53
2019-01-15T16:41:54.143Z,14.60
2019-01-15T16:47:08.231Z,14.07
2019-01-15T16:52:20.929Z,13.40
2019-01-15T16:57:34.640Z,19.27
2019-01-15T17:02:41.032Z,14.30
2019-01-15T17:07:56.949Z,12.40
2019-01-15T17:13:16.896Z,17.90
2019-01-15T17:18:20.392Z,14.03
2019-01-15T17:23:23.998Z,13.90
2019-01-15T17:28:39.706Z,15.40
2019-01-15T17:33:52.034Z,15.83
2019-01-15T17:39:07.776Z,15.23
2019-01-15T17:44:26.660Z,16.17
2019-01-15T17:49:39.304Z,16.53
2019-01-15T17:54:51.751Z,14.63
2019-01-15T18:00:01.511Z,16.53
2019-01-15T18:05:22.952Z,13.87
2019-01-15T18:10:29.329Z,13.67
2019-01-15T18:15:45.327Z,15.77
2019-01-15T18:20:51.620Z,19.60
2019-01-15T18:26:10.523Z,15.50
2019-01-15T18:31:17.054Z,13.70
2019-01-15T18:36:29.611Z,17.00
2019-01-15T18:41:36.000Z,18.10
2019-01-15T18:46:56.244Z,15.03
2019-01-15T18:52:03.366Z,16.57
2019-01-15T18:57:25.749Z,17.00
2019-01-15T19:02:32.020Z,19.67
2019-01-15T19:07:38.468Z,15.83
2019-01-15T19:12:42.047Z,16.43
2019-01-15T19:17:51.811Z,13.87
2019-01-15T19:23:01.454Z,16.90
2019-01-15T19:28:13.923Z,15.53
2019-01-15T19:33:17.524Z,14.57
2019-01-15T19:38:30.198Z,13.30
2019-01-15T19:43:39.926Z,16.43
2019-01-15T19:48:46.511Z,15.00
2019-01-15T19:53:55.987Z,13.10
2019-01-15T19:59:08.598Z,13.03
2019-01-15T20:04:12.221Z,13.73
2019-01-15T20:09:18.816Z,11.23
2019-01-15T20:14:39.571Z,11.00
2019-01-15T20:19:43.658Z,10.63
2019-01-15T20:24:50.452Z,12.20
2019-01-15T20:29:54.063Z,12.03
2019-01-15T20:35:01.180Z,9.60
2019-01-15T20:40:20.402Z,10.40
2019-01-15T20:45:27.422Z,7.50
2019-01-15T20:50:34.410Z,7.23
2019-01-15T20:55:41.218Z,5.97
2019-01-15T21:00:57.066Z,6.13
2019-01-15T21:06:01.185Z,6.97
2019-01-15T21:11:04.821Z,7.77
2019-01-15T21:16:25.020Z,8.40
2019-01-15T21:21:28.674Z,13.37
2019-01-15T21:26:38.145Z,16.50
2019-01-15T21:32:01.783Z,23.40
2019-01-15T21:37:22.273Z,28.20
2019-01-15T21:42:43.357Z,26.30
2019-01-15T21:48:02.652Z,27.67
2019-01-15T21:53:09.938Z,30.10
2019-01-15T21:58:16.462Z,25.00
2019-01-15T22:03:23.084Z,17.37
2019-01-15T22:08:44.966Z,19.93
2019-01-15T22:13:57.731Z,16.57
2019-01-15T22:19:03.822Z,16.33
2019-01-15T22:24:13.491Z,16.40
2019-01-15T22:29:17.052Z,18.30
2019-01-15T22:34:23.718Z,14.90
2019-01-15T22:39:33.384Z,14.70
2019-01-15T22:44:36.980Z,15.50
2019-01-15T22:49:40.571Z,17.20
2019-01-15T22:54:59.208Z,13.80
2019-01-15T23:00:05.564Z,15.57
2019-01-15T23:05:18.533Z,11.80
2019-01-15T23:10:28.199Z,13.00
2019-01-15T23:15:37.707Z,16.20
2019-01-15T23:20:44.339Z,15.90
2019-01-15T23:25:53.821Z,16.63
2019-01-15T23:31:06.361Z,17.17
2019-01-15T23:36:10.008Z,14.77
2019-01-15T23:41:25.299Z,15.10
2019-01-15T23:46:31.644Z,13.80
2019-01-15T23:51:35.275Z,13.90
2019-01-15T23:56:47.903Z,13.00
